Welcome to our Virtual Airline
Sign-in:

Flight MFC107101

  • Submitted By: James Smith
  • Departure Airport: Chernofski Harbor (KCN)
  • Arrival Airport: Unalaska (PADU)
  • Aircraft: CESSNA 185 (N016MM)
  • Flight Time: 00.42.17
  • Date Submitted: 22/02/16
  • Route: STOP PAAM
  • Status: Accepted
Flight Details
Gross Revenue:
(3 load / $ 53.00 per unit
$ 159.00
Fuel Cost:
(21.7724 fuel used @ 5.1 / unit)
$ 111.04

Additional Log Information:

View Log

[15:33] ----- Flight Opened -----
[15:33] Cigar Box - 1.1.4.0
[15:33] FS: Prepar3D V4
[15:33] FSUIPC: v6.106
[15:33] Flight Number: MFC107101
[15:33] FS Aircraft: C185F SKYWAGON AMPHIBIAN
[15:33] FS Model: C185
[15:33] FS Type: Cessna
[15:33] Departure: KCN
[15:33] Arrival: PADU
[15:33] Flight Level: 1500
[15:33] Flight Type: H
[15:33] Passengers: 3
[15:33] FOB: 173 lbs
[15:33] Gate: n/a
[15:33] NOTE: Parking Brake Ignored
[15:33] Crash Detection: Disabled
[15:33] Crash Detection Aircraft: Disabled
[15:33] Engines: 1 Piston
[15:33] NOTE: Boarding has started
[15:33] Light Data: Navigation ON
[15:33] Light Data: Beacon ON
[15:33] Main Door Closed
[15:33] COM1: 122.90
[15:33] COM2: 124.85
[15:33] Transponder: 1234
[15:33] NAV1: 110.50
[15:33] NAV2: 110.50
[15:33] ADF1: 890.0
[15:33] ADF2: 890.0
[15:33] Navigation Mode: NAV
[15:33] Engine 1: Started
[15:34] NOTE: Taxi started
[15:34] Flaps: Position 1
[15:36] NOTE: ----- TAKE OFF -----
[15:36] GS: 71 knots
[15:36] TAS: 73 knots
[15:36] IAS: 73 knots
[15:36] VS: 0 fpm
[15:36] FOB: 172 lbs
[15:36] Heading: 305°
[15:36] Pitch: 0°
[15:36] Bank: 0°
[15:36] Aircraft Weight: 2277.62 lbs
[15:36] Nearest Airport: KCN
[15:36] Distance: 0.18 miles
[15:36] Runway: ???
[15:36] Ground Surface: Water
[15:36] Ground Condition: Snow
[15:36] NOTE: Weather Report
[15:36] Wind Heading: 350°
[15:36] Wind Speed: 0 knots
[15:36] OAT: 16° C
[15:36] TAT: 17° C
[15:36] Precipitation: None
[15:36] Dew Point: 6° C
[15:36] Visibility: 62 miles
[15:36] METAR: KCNK 161955Z AUTO 03011G21KT 10SM CLR 07/M06 A2976 RMK AO2 SLP076 T00671061 KCNC 162015Z AUTO 35012KT 6SM HZ SCT060 BKN065 05/01 A2974 RMK AO2 KCNO 161853Z 00000KT 10SM CLR 14/03 A3002 RMK AO2 SLP164 T01390028 KCNU 161952Z AUTO 19025G36KT 10SM SCT040 BKN050 BKN055 21/11 A2970 RMK AO2 PK WND 21039/1930 SLP049 T02060106 KCNY 161953Z AUTO 29014KT 10SM BKN100 09/M07 A2968 RMK AO2 SLP042 T00891067 KCNW 161955Z 18012G18KT 7SM -RA OVC015 19/17 A2988 KCNI 162015Z AUTO 14010G14KT 10SM BKN040 BKN048 OVC070 17/07 A3036 RMK AO2 KCNM 161953Z AUTO 20023G32KT 10SM CLR 24/M08 A2968 RMK AO2 PK WND 22035/1909 SLP012 T02391078 KCNB 162015Z AUTO 31020G25KT 270V340 10SM CLR M05/M12 A2997 RMK AO2 T10511117
[15:36] NOTE: Climb started
[15:36] View Mode: Virtual Cockpit
[15:37] Flaps: Position 0
[15:37] GS: 81 knots
[15:37] TAS: 85 knots
[15:37] IAS: 83 knots
[15:37] VS: 547 fpm
[15:38] NOTE: TOC reached
[15:38] NOTE: Cruise started
[15:38] GS: 91 knots
[15:38] TAS: 94 knots
[15:38] IAS: 92 knots
[15:38] VS: 188 fpm
[15:38] FOB: 168 lbs
[15:38] Heading: 19°
[15:38] Pitch: 1°
[15:38] Bank: 0°
[15:38] Aircraft Weight: 2273.99 lbs
[16:00] Landing Gear: Retracted
[16:00] GS: 99 knots
[16:00] TAS: 98 knots
[16:00] IAS: 95 knots
[16:00] VS: -1255 fpm
[16:00] AGL: 1670 ft
[16:00] AMSL: 1725 ft
[16:00] Flaps: Position 1
[16:00] GS: 97 knots
[16:00] TAS: 97 knots
[16:00] IAS: 95 knots
[16:00] VS: -1458 fpm
[16:00] Landing Gear: Extended
[16:00] GS: 93 knots
[16:00] TAS: 92 knots
[16:00] IAS: 90 knots
[16:00] VS: -1240 fpm
[16:00] AGL: 1545 ft
[16:00] AMSL: 1610 ft
[16:00] Flaps: Position 2
[16:00] GS: 85 knots
[16:00] TAS: 89 knots
[16:00] IAS: 87 knots
[16:00] VS: -1544 fpm
[16:01] NOTE: TOD reached
[16:01] NOTE: Descent started
[16:01] GS: 79 knots
[16:01] TAS: 84 knots
[16:01] IAS: 83 knots
[16:01] VS: -1756 fpm
[16:01] FOB: 136 lbs
[16:01] Heading: 265°
[16:01] Pitch: 11°
[16:01] Bank: -26°
[16:01] Aircraft Weight: 2241.45 lbs
[16:01] NOTE: On approach
[16:01] Flaps: Position 3
[16:01] GS: 69 knots
[16:01] TAS: 73 knots
[16:01] IAS: 72 knots
[16:01] VS: -575 fpm
[16:02] Flaps: Position 4
[16:02] GS: 60 knots
[16:02] TAS: 62 knots
[16:02] IAS: 61 knots
[16:02] VS: -592 fpm
[16:02] NOTE: ----- LANDED -----
[16:02] Landing Rate: -273.75 fpm
[16:02] GS: 44 knots
[16:02] TAS: 44 knots
[16:02] IAS: 44 knots
[16:02] VS: -272 fpm
[16:02] FOB: 136 lbs
[16:02] Heading: 303°
[16:02] Pitch: 4°
[16:02] Bank: 1°
[16:02] Aircraft Weight: 2241.64 lbs
[16:02] Nearest Airport: PAAM
[16:02] Distance: 0.25 miles
[16:02] Runway: ???
[16:02] Ground Surface: Long Grass
[16:02] Ground Condition: Snow
[16:02] NOTE: Weather Report
[16:02] Wind Heading: 349°
[16:02] Wind Speed: 0 knots
[16:02] OAT: 16° C
[16:02] TAT: 16° C
[16:02] Precipitation: None
[16:02] Dew Point: 6° C
[16:02] Visibility: 62 miles
[16:02] METAR: PADU 162056Z 15014G24KT 10SM -RA BKN030 OVC035 07/03 A2968 RMK AO2 SLP054 6//// T00670033 58020 PNO $
[16:02] View Mode: Virtual Cockpit
[16:02] NOTE: Taxi started
[16:03] Flaps: Position 2
[16:04] Landing Gear: Retracted
[16:04] GS: 71 knots
[16:04] TAS: 75 knots
[16:04] IAS: 75 knots
[16:04] VS: 1986 fpm
[16:04] AGL: 148 ft
[16:04] AMSL: 190 ft
[16:04] View Mode: Virtual Cockpit
[16:06] Flaps: Position 1
[16:06] GS: 69 knots
[16:06] TAS: 64 knots
[16:06] IAS: 61 knots
[16:06] VS: 1558 fpm
[16:06] Flaps: Position 0
[16:06] GS: 73 knots
[16:06] TAS: 65 knots
[16:06] IAS: 62 knots
[16:06] VS: 1030 fpm
[16:07] COM1: 125.80
[16:08] COM1: 122.60
[16:12] Landing Gear: Extended
[16:12] GS: 97 knots
[16:12] TAS: 97 knots
[16:12] IAS: 96 knots
[16:12] VS: -960 fpm
[16:12] AGL: 1089 ft
[16:12] AMSL: 1089 ft
[16:12] Flaps: Position 1
[16:12] GS: 99 knots
[16:12] TAS: 98 knots
[16:12] IAS: 96 knots
[16:12] VS: -925 fpm
[16:13] Flaps: Position 2
[16:13] GS: 81 knots
[16:13] TAS: 81 knots
[16:13] IAS: 80 knots
[16:13] VS: -751 fpm
[16:13] Flaps: Position 3
[16:13] GS: 71 knots
[16:13] TAS: 72 knots
[16:13] IAS: 71 knots
[16:13] VS: -642 fpm
[16:14] NOTE: ----- LANDED -----
[16:14] Landing Rate: -242.99 fpm
[16:14] GS: 52 knots
[16:14] TAS: 53 knots
[16:14] IAS: 53 knots
[16:14] VS: -239 fpm
[16:14] FOB: 125 lbs
[16:14] Heading: 133°
[16:14] Pitch: 2°
[16:14] Bank: 0°
[16:14] Aircraft Weight: 2230.08 lbs
[16:14] Nearest Airport: PADU
[16:14] Distance: 0.25 miles
[16:14] Runway: 12 - PADU
[16:14] Ground Surface: Asphalt
[16:14] Ground Condition: Snow
[16:14] NOTE: Weather Report
[16:14] Wind Heading: 349°
[16:14] Wind Speed: 0 knots
[16:14] OAT: 16° C
[16:14] TAT: 16° C
[16:14] Precipitation: None
[16:14] Dew Point: 6° C
[16:14] Visibility: 62 miles
[16:14] METAR: PADU 162056Z 15014G24KT 10SM -RA BKN030 OVC035 07/03 A2968 RMK AO2 SLP054 6//// T00670033 58020 PNO $
[16:14] View Mode: Virtual Cockpit
[16:14] Flaps: Position 1
[16:14] Flaps: Position 0
[16:15] NOTE: Arrived
[16:15] Parking Brake: Engaged
[16:16] Engine 1: Stopped
[16:16] Gate: 17 - PADU
[16:16] NOTE: Flight Completed
[16:16] FS Aircraft: C185F SKYWAGON AMPHIBIAN
[16:16] FS Model: C185
[16:16] FS Type: Cessna
[16:16] FOB: 384 lbs
[16:16] Fuel Used: 48 lbs
[16:16] Flight Time: 00:42:17
[16:16] Flight Time (Dawn): 00:00:00
[16:16] Flight Time (Day): 00:42:17
[16:16] Flight Time (Dusk): 00:00:00
[16:16] Flight Time (Night): 00:00:00
[16:16] Total Landings: 2
[16:16] MaxSim Rate: 1x
[16:16] Cigar Box - 1.1.4.0
[16:16] ----- Flight Closed -----

Route Map